createdAt,value
2022-08-28T00:00:12.448Z,1.30
2022-08-28T00:02:39.460Z,1.70
2022-08-28T00:05:07.480Z,1.77
2022-08-28T00:07:34.745Z,1.57
2022-08-28T00:10:01.218Z,1.60
2022-08-28T00:12:27.691Z,1.75
2022-08-28T00:14:54.149Z,1.60
2022-08-28T00:17:20.512Z,1.85
2022-08-28T00:19:47.402Z,1.60
2022-08-28T00:22:13.835Z,1.33
2022-08-28T00:24:44.572Z,1.40
2022-08-28T00:27:29.685Z,1.30
2022-08-28T00:29:56.160Z,1.25
2022-08-28T00:32:23.506Z,1.37
2022-08-28T00:34:50.449Z,0.98
2022-08-28T00:37:17.725Z,1.40
2022-08-28T00:39:44.341Z,0.90
2022-08-28T00:42:10.775Z,1.27
2022-08-28T00:44:37.150Z,1.00
2022-08-28T00:47:03.864Z,1.10
2022-08-28T00:49:33.619Z,1.40
2022-08-28T00:52:15.911Z,1.42
2022-08-28T00:54:59.095Z,1.13
2022-08-28T00:57:35.925Z,1.20
2022-08-28T01:00:06.520Z,1.10
2022-08-28T01:02:33.218Z,1.20
2022-08-28T01:04:59.757Z,1.00
2022-08-28T01:07:26.381Z,1.30
2022-08-28T01:09:55.099Z,1.20
2022-08-28T01:12:26.159Z,1.27
2022-08-28T01:14:59.093Z,1.30
2022-08-28T01:17:29.009Z,0.90
2022-08-28T01:20:00.544Z,1.52
2022-08-28T01:22:54.042Z,1.00
2022-08-28T01:25:24.888Z,1.30
2022-08-28T01:27:51.624Z,1.45
2022-08-28T01:30:21.698Z,1.10
2022-08-28T01:32:51.722Z,1.10
2022-08-28T01:35:22.525Z,1.30
2022-08-28T01:37:49.284Z,1.30
2022-08-28T01:40:23.627Z,1.30
2022-08-28T01:42:50.245Z,1.17
2022-08-28T01:45:20.424Z,1.00
2022-08-28T01:47:47.596Z,1.70
2022-08-28T01:50:21.431Z,1.27
2022-08-28T01:52:47.841Z,1.05
2022-08-28T01:55:14.345Z,1.38
2022-08-28T01:57:49.923Z,1.30
2022-08-28T02:00:18.085Z,1.00
2022-08-28T02:02:44.602Z,1.20
2022-08-28T02:05:11.978Z,1.27
2022-08-28T02:07:38.781Z,0.98
2022-08-28T02:10:07.737Z,1.25
2022-08-28T02:12:34.477Z,1.65
2022-08-28T02:15:00.901Z,0.88
2022-08-28T02:17:27.558Z,0.80
2022-08-28T02:19:53.921Z,1.08
2022-08-28T02:22:20.318Z,1.10
2022-08-28T02:24:46.757Z,1.40
2022-08-28T02:27:13.159Z,1.20
2022-08-28T02:29:39.582Z,0.80
2022-08-28T02:32:06.188Z,1.00
2022-08-28T02:34:34.161Z,1.50
2022-08-28T02:37:00.671Z,0.90
2022-08-28T02:39:27.314Z,1.10
2022-08-28T02:41:53.708Z,0.95
2022-08-28T02:44:20.068Z,1.20
2022-08-28T02:46:46.479Z,1.20
2022-08-28T02:49:12.904Z,1.08
2022-08-28T02:51:39.268Z,1.90
2022-08-28T02:54:05.716Z,1.10
2022-08-28T02:56:32.251Z,0.95
2022-08-28T02:58:58.832Z,1.10
2022-08-28T03:01:25.402Z,1.00
2022-08-28T03:03:53.002Z,1.05
2022-08-28T03:06:19.504Z,0.93
2022-08-28T03:08:46.003Z,0.90
2022-08-28T03:11:12.781Z,1.15
2022-08-28T03:13:39.416Z,1.23
2022-08-28T03:16:06.506Z,1.20
2022-08-28T03:18:33.183Z,1.20
2022-08-28T03:20:59.817Z,1.48
2022-08-28T03:23:26.238Z,1.50
2022-08-28T03:26:08.814Z,1.30
2022-08-28T03:28:55.837Z,1.27
2022-08-28T03:31:26.942Z,1.10
2022-08-28T03:33:54.973Z,1.25
2022-08-28T03:36:25.273Z,1.25
2022-08-28T03:38:53.339Z,1.30
2022-08-28T03:41:22.035Z,1.73
2022-08-28T03:43:48.709Z,1.40
2022-08-28T03:46:18.854Z,1.88
2022-08-28T03:48:46.262Z,1.90
2022-08-28T03:51:19.397Z,1.50
2022-08-28T03:53:50.375Z,1.77
2022-08-28T03:56:21.888Z,1.55
2022-08-28T03:58:51.222Z,1.90
2022-08-28T04:01:18.443Z,1.63
2022-08-28T04:03:45.901Z,1.30
2022-08-28T04:06:12.886Z,1.88
2022-08-28T04:08:39.626Z,1.67
2022-08-28T04:11:06.672Z,1.90
2022-08-28T04:13:33.063Z,1.70
2022-08-28T04:16:10.820Z,1.45
2022-08-28T04:18:42.965Z,1.73
2022-08-28T04:21:12.304Z,1.88
2022-08-28T04:23:40.687Z,1.52
2022-08-28T04:26:08.208Z,1.45
2022-08-28T04:28:35.244Z,1.50
2022-08-28T04:31:02.113Z,1.80
2022-08-28T04:33:28.999Z,2.05
2022-08-28T04:35:56.206Z,2.00
2022-08-28T04:38:22.742Z,2.65
2022-08-28T04:40:49.284Z,1.85
2022-08-28T04:43:15.856Z,2.60
2022-08-28T04:45:44.368Z,2.33
2022-08-28T04:48:13.571Z,1.90
2022-08-28T04:50:46.630Z,1.77
2022-08-28T04:53:14.989Z,1.90
2022-08-28T04:55:52.793Z,2.30
2022-08-28T04:58:24.113Z,1.80
2022-08-28T05:00:53.092Z,2.00
2022-08-28T05:03:20.126Z,1.90
2022-08-28T05:05:49.503Z,1.83
2022-08-28T05:08:18.152Z,1.60
2022-08-28T05:10:46.311Z,1.92
2022-08-28T05:13:15.414Z,1.67
2022-08-28T05:15:44.583Z,2.08
2022-08-28T05:18:14.098Z,2.22
2022-08-28T05:20:44.616Z,1.95
2022-08-28T05:23:11.802Z,1.88
2022-08-28T05:25:41.897Z,1.73
2022-08-28T05:28:12.009Z,2.38
2022-08-28T05:30:42.001Z,2.28
2022-08-28T05:33:09.852Z,2.25
2022-08-28T05:35:38.541Z,1.95
2022-08-28T05:38:06.366Z,2.15
2022-08-28T05:43:01.022Z,1.92
2022-08-28T05:45:27.568Z,1.90
2022-08-28T05:47:54.045Z,1.92
2022-08-28T05:50:20.507Z,1.80
2022-08-28T05:52:47.390Z,2.20
2022-08-28T05:55:14.138Z,2.33
2022-08-28T05:57:41.415Z,2.00
2022-08-28T06:00:13.766Z,1.65
2022-08-28T06:02:42.054Z,2.15
2022-08-28T06:05:12.638Z,2.40
2022-08-28T06:07:40.999Z,1.92
2022-08-28T06:10:10.639Z,2.75
2022-08-28T06:12:37.819Z,2.33
2022-08-28T06:15:05.622Z,2.20
2022-08-28T06:17:32.097Z,1.98
2022-08-28T06:19:58.560Z,2.47
2022-08-28T06:22:24.955Z,1.80
2022-08-28T06:24:51.470Z,1.90
2022-08-28T06:27:18.625Z,1.85
2022-08-28T06:29:46.161Z,1.70
2022-08-28T06:32:13.255Z,1.13
2022-08-28T06:34:39.747Z,1.50
2022-08-28T06:37:06.199Z,1.20
2022-08-28T06:39:33.034Z,1.15
2022-08-28T06:41:59.934Z,1.10
2022-08-28T06:44:27.947Z,1.13
2022-08-28T06:46:55.531Z,1.13
2022-08-28T06:49:22.433Z,0.90
2022-08-28T06:51:49.219Z,0.80
2022-08-28T06:54:22.369Z,1.30
2022-08-28T06:56:49.859Z,0.60
2022-08-28T06:59:16.312Z,0.85
2022-08-28T07:01:42.754Z,0.60
2022-08-28T07:04:11.982Z,0.90
2022-08-28T07:06:41.268Z,0.90
2022-08-28T07:09:11.114Z,0.77
2022-08-28T07:11:38.629Z,0.70
2022-08-28T07:14:06.454Z,1.45
2022-08-28T07:16:37.949Z,0.60
2022-08-28T07:19:06.640Z,0.55
2022-08-28T07:21:38.873Z,0.70
2022-08-28T07:24:07.712Z,1.00
2022-08-28T07:26:35.938Z,0.65
2022-08-28T07:29:10.742Z,0.50
2022-08-28T07:31:43.493Z,0.60
2022-08-28T07:34:12.087Z,0.70
2022-08-28T07:36:39.797Z,0.50
2022-08-28T07:39:07.825Z,0.60
2022-08-28T07:41:37.349Z,0.70
2022-08-28T07:44:22.542Z,0.60
2022-08-28T07:46:53.741Z,0.50
2022-08-28T07:49:29.456Z,0.50
2022-08-28T07:51:56.325Z,0.50
2022-08-28T07:54:23.950Z,0.60
2022-08-28T07:56:50.865Z,0.55
2022-08-28T07:59:19.208Z,0.60
2022-08-28T08:01:48.358Z,0.50
2022-08-28T08:04:16.413Z,0.60
2022-08-28T08:06:44.150Z,0.50
2022-08-28T08:09:12.868Z,0.40
2022-08-28T08:11:39.485Z,0.60
2022-08-28T08:14:07.351Z,0.47
2022-08-28T08:16:36.262Z,0.47
2022-08-28T08:19:06.446Z,0.60
2022-08-28T08:21:32.907Z,0.80
2022-08-28T08:23:59.356Z,1.00
2022-08-28T08:26:30.835Z,0.70
2022-08-28T08:28:57.435Z,1.10
2022-08-28T08:31:35.213Z,0.50
2022-08-28T08:34:04.395Z,0.45
2022-08-28T08:36:33.068Z,0.50
2022-08-28T08:39:00.834Z,0.40
2022-08-28T08:41:39.009Z,0.30
2022-08-28T08:44:20.066Z,0.30
2022-08-28T08:47:02.776Z,0.47
2022-08-28T08:49:48.769Z,0.60
2022-08-28T08:52:24.169Z,0.40
2022-08-28T08:55:06.171Z,0.60
2022-08-28T08:57:35.908Z,0.60
2022-08-28T09:00:11.138Z,0.70
2022-08-28T09:02:49.898Z,0.50
2022-08-28T09:05:21.990Z,0.40
2022-08-28T09:07:57.779Z,0.40
2022-08-28T09:10:33.265Z,0.50
2022-08-28T09:13:21.578Z,0.60
2022-08-28T09:15:50.867Z,0.40
2022-08-28T09:18:25.809Z,0.60
2022-08-28T09:20:54.947Z,0.50
2022-08-28T09:23:23.839Z,0.43
2022-08-28T09:26:01.779Z,0.60
2022-08-28T09:28:34.137Z,0.40
2022-08-28T09:31:08.235Z,0.60
2022-08-28T09:33:44.875Z,0.50
2022-08-28T09:36:29.060Z,0.65
2022-08-28T09:39:24.807Z,0.40
2022-08-28T09:42:33.048Z,0.50
2022-08-28T09:45:21.157Z,0.70
2022-08-28T09:47:58.339Z,0.60
2022-08-28T09:50:44.574Z,0.60
2022-08-28T09:53:13.813Z,0.45
2022-08-28T09:56:11.642Z,0.40
2022-08-28T09:58:43.071Z,0.40
2022-08-28T10:01:29.254Z,0.40
2022-08-28T10:04:15.102Z,0.30
2022-08-28T10:06:48.401Z,0.43
2022-08-28T10:09:54.982Z,0.50
2022-08-28T10:12:44.682Z,0.65
2022-08-28T10:15:17.674Z,0.60
2022-08-28T10:17:59.837Z,0.40
2022-08-28T10:21:03.179Z,0.47
2022-08-28T10:23:58.519Z,0.77
2022-08-28T10:26:46.891Z,0.40
2022-08-28T10:29:45.992Z,0.40
2022-08-28T10:32:18.346Z,0.38
2022-08-28T10:34:57.992Z,0.40
2022-08-28T10:37:42.506Z,0.60
2022-08-28T10:40:16.337Z,0.52
2022-08-28T10:42:48.498Z,0.50
2022-08-28T10:45:22.797Z,0.40
2022-08-28T10:47:55.446Z,0.40
2022-08-28T10:50:28.830Z,0.60
2022-08-28T10:53:03.675Z,0.50
2022-08-28T10:55:37.462Z,0.40
2022-08-28T10:58:24.984Z,0.35
2022-08-28T11:01:01.277Z,0.40
2022-08-28T11:03:35.569Z,0.70
2022-08-28T11:06:38.682Z,0.40
2022-08-28T11:09:25.259Z,0.60
2022-08-28T11:12:01.063Z,0.50
2022-08-28T11:14:47.678Z,0.50
2022-08-28T11:17:30.645Z,0.47
2022-08-28T11:20:15.413Z,0.60
2022-08-28T11:22:43.999Z,0.55
2022-08-28T11:25:26.572Z,0.38
2022-08-28T11:28:25.379Z,0.47
2022-08-28T11:31:00.958Z,0.50
2022-08-28T11:33:33.599Z,0.45
2022-08-28T11:36:00.531Z,0.50
2022-08-28T11:38:42.131Z,0.40
2022-08-28T11:41:21.691Z,0.50
2022-08-28T11:44:14.756Z,1.00
2022-08-28T11:46:52.798Z,0.70
2022-08-28T11:49:34.619Z,0.45
2022-08-28T11:52:23.505Z,0.40
2022-08-28T11:55:31.802Z,0.43
2022-08-28T11:58:16.122Z,0.40
2022-08-28T12:00:58.021Z,1.10
2022-08-28T12:03:34.085Z,0.40
2022-08-28T12:06:01.491Z,0.30
2022-08-28T12:08:51.400Z,0.32
2022-08-28T12:11:41.255Z,0.53
2022-08-28T12:14:33.300Z,0.40
2022-08-28T12:16:59.813Z,0.40
2022-08-28T12:19:32.721Z,0.70
2022-08-28T12:22:05.031Z,0.50
2022-08-28T12:24:31.611Z,0.47
2022-08-28T12:26:59.093Z,0.45
2022-08-28T12:29:49.565Z,0.50
2022-08-28T12:32:33.144Z,0.50
2022-08-28T12:34:59.456Z,0.30
2022-08-28T12:37:52.733Z,1.00
2022-08-28T12:40:24.928Z,0.50
2022-08-28T12:42:58.634Z,0.43
2022-08-28T12:45:51.921Z,0.30
2022-08-28T12:48:26.650Z,0.47
2022-08-28T12:50:59.544Z,0.50
2022-08-28T12:53:27.620Z,0.40
2022-08-28T12:55:55.740Z,0.40
2022-08-28T12:58:30.251Z,0.70
2022-08-28T13:01:06.820Z,0.55
2022-08-28T13:03:33.785Z,0.47
2022-08-28T13:06:06.722Z,0.52
2022-08-28T13:08:34.632Z,0.50
2022-08-28T13:11:04.636Z,0.80
2022-08-28T13:13:34.274Z,0.40
2022-08-28T13:16:07.522Z,0.57
2022-08-28T13:18:42.143Z,0.45
2022-08-28T13:21:33.019Z,0.52
2022-08-28T13:24:26.104Z,0.60
2022-08-28T13:27:15.948Z,0.60
2022-08-28T13:30:26.608Z,0.57
2022-08-28T13:33:01.580Z,0.70
2022-08-28T13:35:37.482Z,0.45
2022-08-28T13:38:08.361Z,0.70
2022-08-28T13:40:59.448Z,0.60
2022-08-28T13:43:29.914Z,0.50
2022-08-28T13:45:57.514Z,0.60
2022-08-28T13:48:26.473Z,0.60
2022-08-28T13:50:58.906Z,0.60
2022-08-28T13:53:25.850Z,0.57
2022-08-28T13:55:52.449Z,0.50
2022-08-28T13:58:19.540Z,0.60
2022-08-28T14:00:48.919Z,0.60
2022-08-28T14:03:34.461Z,0.70
2022-08-28T14:06:02.970Z,0.82
2022-08-28T14:08:30.332Z,0.70
2022-08-28T14:10:59.306Z,0.50
2022-08-28T14:13:27.662Z,0.65
2022-08-28T14:15:57.759Z,0.57
2022-08-28T14:18:25.794Z,0.80
2022-08-28T14:20:52.955Z,0.70
2022-08-28T14:23:19.421Z,0.90
2022-08-28T14:25:47.335Z,0.60
2022-08-28T14:28:14.862Z,0.60
2022-08-28T14:30:47.008Z,0.82
2022-08-28T14:33:16.827Z,0.90
2022-08-28T14:35:43.465Z,0.73
2022-08-28T14:38:10.980Z,0.60
2022-08-28T14:40:54.845Z,1.13
2022-08-28T14:43:25.033Z,0.50
2022-08-28T14:46:30.836Z,1.10
2022-08-28T14:49:09.226Z,0.85
2022-08-28T14:51:42.915Z,1.02
2022-08-28T14:54:13.679Z,0.95
2022-08-28T14:56:41.773Z,0.70
2022-08-28T14:59:13.562Z,0.70
2022-08-28T15:01:42.894Z,0.70
2022-08-28T15:04:15.655Z,0.70
2022-08-28T15:06:43.619Z,0.88
2022-08-28T15:09:11.309Z,0.70
2022-08-28T15:11:39.228Z,0.90
2022-08-28T15:14:06.547Z,0.68
2022-08-28T15:16:39.068Z,0.85
2022-08-28T15:19:06.565Z,0.80
2022-08-28T15:21:35.779Z,0.82
2022-08-28T15:24:03.862Z,1.27
2022-08-28T15:26:31.317Z,1.00
2022-08-28T15:29:02.344Z,0.80
2022-08-28T15:31:31.213Z,0.82
2022-08-28T15:33:57.654Z,0.70
2022-08-28T15:36:24.101Z,0.70
2022-08-28T15:39:09.157Z,0.60
2022-08-28T15:41:37.863Z,0.50
2022-08-28T15:44:05.117Z,0.60
2022-08-28T15:46:34.352Z,0.77
2022-08-28T15:49:03.336Z,0.53
2022-08-28T15:51:30.299Z,0.60
2022-08-28T15:53:56.697Z,0.70
2022-08-28T15:56:23.617Z,0.80
2022-08-28T15:58:50.802Z,0.73
2022-08-28T16:01:17.659Z,1.07
2022-08-28T16:03:44.141Z,0.80
2022-08-28T16:06:16.413Z,0.60
2022-08-28T16:08:44.213Z,0.70
2022-08-28T16:11:14.128Z,0.60
2022-08-28T16:13:40.769Z,0.60
2022-08-28T16:16:07.294Z,0.75
2022-08-28T16:18:33.765Z,0.60
2022-08-28T16:21:04.680Z,0.77
2022-08-28T16:23:32.412Z,0.60
2022-08-28T16:26:00.388Z,0.80
2022-08-28T16:28:27.213Z,0.60
2022-08-28T16:30:53.872Z,0.70
2022-08-28T16:33:22.092Z,0.77
2022-08-28T16:35:54.872Z,0.80
2022-08-28T16:38:22.583Z,0.80
2022-08-28T16:40:49.216Z,0.90
2022-08-28T16:43:15.928Z,0.60
2022-08-28T16:45:44.004Z,1.10
2022-08-28T16:48:12.632Z,1.30
2022-08-28T16:50:43.879Z,0.67
2022-08-28T16:53:12.154Z,0.90
2022-08-28T16:55:40.368Z,0.73
2022-08-28T16:58:07.110Z,0.70
2022-08-28T17:00:33.921Z,0.90
2022-08-28T17:03:11.115Z,0.83
2022-08-28T17:05:37.515Z,0.60
2022-08-28T17:08:04.798Z,0.60
2022-08-28T17:10:31.609Z,0.40
2022-08-28T17:12:58.144Z,0.50
2022-08-28T17:15:24.801Z,0.70
2022-08-28T17:17:51.400Z,0.65
2022-08-28T17:20:37.381Z,0.60
2022-08-28T17:23:05.072Z,0.70
2022-08-28T17:25:32.152Z,0.60
2022-08-28T17:27:59.424Z,0.70
2022-08-28T17:30:26.068Z,1.92
2022-08-28T17:32:53.224Z,1.30
2022-08-28T17:35:19.854Z,0.90
2022-08-28T17:37:46.647Z,0.70
2022-08-28T17:40:16.311Z,0.80
2022-08-28T17:42:45.511Z,0.55
2022-08-28T17:45:12.446Z,0.70
2022-08-28T17:47:38.799Z,0.50
2022-08-28T17:50:06.004Z,0.50
2022-08-28T17:52:33.317Z,0.60
2022-08-28T17:55:00.699Z,0.80
2022-08-28T17:57:30.359Z,0.60
2022-08-28T17:59:58.575Z,0.80
2022-08-28T18:02:26.468Z,0.60
2022-08-28T18:04:54.085Z,0.57
2022-08-28T18:07:20.712Z,0.80
2022-08-28T18:09:50.487Z,1.02
2022-08-28T18:12:17.540Z,1.92
2022-08-28T18:14:43.997Z,1.52
2022-08-28T18:17:15.974Z,0.43
2022-08-28T18:19:43.279Z,0.55
2022-08-28T18:22:11.789Z,0.50
2022-08-28T18:24:39.339Z,0.50
2022-08-28T18:27:07.607Z,2.45
2022-08-28T18:29:36.576Z,0.67
2022-08-28T18:32:05.461Z,0.60
2022-08-28T18:34:32.136Z,1.00
2022-08-28T18:36:59.342Z,1.42
2022-08-28T18:39:29.885Z,1.65
2022-08-28T18:41:57.913Z,1.30
2022-08-28T18:44:25.033Z,0.80
2022-08-28T18:46:51.525Z,0.63
2022-08-28T18:49:18.176Z,0.68
2022-08-28T18:51:44.732Z,1.02
2022-08-28T18:54:14.506Z,1.00
2022-08-28T18:56:43.090Z,0.77
2022-08-28T18:59:09.541Z,0.70
2022-08-28T19:01:39.523Z,0.60
2022-08-28T19:04:07.367Z,0.50
2022-08-28T19:06:35.184Z,0.77
2022-08-28T19:09:01.712Z,0.73
2022-08-28T19:11:31.018Z,0.60
2022-08-28T19:13:58.554Z,0.60
2022-08-28T19:16:25.024Z,0.30
2022-08-28T19:18:53.496Z,0.40
2022-08-28T19:21:20.376Z,0.60
2022-08-28T19:23:55.480Z,0.70
2022-08-28T19:26:24.536Z,0.90
2022-08-28T19:28:51.446Z,0.73
2022-08-28T19:31:18.406Z,0.80
2022-08-28T19:33:46.664Z,0.50
2022-08-28T19:36:13.785Z,0.57
2022-08-28T19:38:41.492Z,0.60
2022-08-28T19:41:10.158Z,0.60
2022-08-28T19:43:44.391Z,0.70
2022-08-28T19:46:19.314Z,1.00
2022-08-28T19:48:47.742Z,0.70
2022-08-28T19:51:18.213Z,0.70
2022-08-28T19:53:57.958Z,0.40
2022-08-28T19:56:31.331Z,0.60
2022-08-28T19:59:00.630Z,0.47
2022-08-28T20:01:30.395Z,0.70
2022-08-28T20:03:58.664Z,0.70
2022-08-28T20:06:30.995Z,0.73
2022-08-28T20:08:57.926Z,0.97
2022-08-28T20:11:30.303Z,0.70
2022-08-28T20:13:59.856Z,0.45
2022-08-28T20:16:28.104Z,0.70
2022-08-28T20:18:54.992Z,0.57
2022-08-28T20:21:22.909Z,0.63
2022-08-28T20:24:04.809Z,0.70
2022-08-28T20:26:31.216Z,0.60
2022-08-28T20:28:57.673Z,0.70
2022-08-28T20:31:24.189Z,0.50
2022-08-28T20:33:50.818Z,0.70
2022-08-28T20:36:21.047Z,0.73
2022-08-28T20:38:47.942Z,0.75
2022-08-28T20:41:20.679Z,0.80
2022-08-28T20:43:48.467Z,0.90
2022-08-28T20:46:19.929Z,0.77
2022-08-28T20:48:46.701Z,0.70
2022-08-28T20:51:13.158Z,0.60
2022-08-28T20:53:40.231Z,0.60
2022-08-28T20:56:09.377Z,0.65
2022-08-28T20:58:37.292Z,0.90
2022-08-28T21:01:04.785Z,0.70
2022-08-28T21:03:31.336Z,1.27
2022-08-28T21:05:58.079Z,0.50
2022-08-28T21:08:24.635Z,0.80
2022-08-28T21:10:52.153Z,0.70
2022-08-28T21:13:19.187Z,0.75
2022-08-28T21:15:45.647Z,0.63
2022-08-28T21:18:12.093Z,0.70
2022-08-28T21:20:40.060Z,0.40
2022-08-28T21:23:07.076Z,0.83
2022-08-28T21:25:33.615Z,0.50
2022-08-28T21:28:04.167Z,0.40
2022-08-28T21:30:31.896Z,0.50
2022-08-28T21:32:58.537Z,0.43
2022-08-28T21:35:25.260Z,0.47
2022-08-28T21:37:52.279Z,0.40
2022-08-28T21:40:19.488Z,0.40
2022-08-28T21:42:46.049Z,0.50
2022-08-28T21:45:12.879Z,0.40
2022-08-28T21:47:41.146Z,0.63
2022-08-28T21:50:08.122Z,0.47
2022-08-28T21:52:34.966Z,0.55
2022-08-28T21:55:10.714Z,0.38
2022-08-28T21:57:37.657Z,0.50
2022-08-28T22:00:11.884Z,0.50
2022-08-28T22:02:38.881Z,0.40
2022-08-28T22:05:05.780Z,0.43
2022-08-28T22:07:32.808Z,0.50
2022-08-28T22:09:59.262Z,0.70
2022-08-28T22:12:25.807Z,0.70
2022-08-28T22:14:52.552Z,0.30
2022-08-28T22:17:19.098Z,0.43
2022-08-28T22:19:46.557Z,0.50
2022-08-28T22:22:32.296Z,0.50
2022-08-28T22:24:58.686Z,0.50
2022-08-28T22:27:28.589Z,0.50
2022-08-28T22:29:55.793Z,0.32
2022-08-28T22:32:25.633Z,0.30
2022-08-28T22:34:52.596Z,0.52
2022-08-28T22:37:19.011Z,0.30
2022-08-28T22:39:45.533Z,0.40
2022-08-28T22:42:11.989Z,0.55
2022-08-28T22:44:38.775Z,0.40
2022-08-28T22:47:05.990Z,0.57
2022-08-28T22:49:32.745Z,0.60
2022-08-28T22:51:59.151Z,0.60
2022-08-28T22:54:26.337Z,0.57
2022-08-28T22:56:52.790Z,0.50
2022-08-28T22:59:19.378Z,0.60
2022-08-28T23:01:46.111Z,0.43
2022-08-28T23:04:12.739Z,0.60
2022-08-28T23:06:40.207Z,0.82
2022-08-28T23:09:08.384Z,0.50
2022-08-28T23:11:36.396Z,0.38
2022-08-28T23:14:04.733Z,0.60
2022-08-28T23:16:32.740Z,0.57
2022-08-28T23:19:08.632Z,0.40
2022-08-28T23:21:36.082Z,0.60
2022-08-28T23:24:07.506Z,0.60
2022-08-28T23:26:34.581Z,0.60
2022-08-28T23:29:02.101Z,0.50
2022-08-28T23:31:28.806Z,0.40
2022-08-28T23:33:55.315Z,0.50
2022-08-28T23:36:22.319Z,0.60
2022-08-28T23:38:48.876Z,0.40
2022-08-28T23:41:15.532Z,0.60
2022-08-28T23:43:42.219Z,0.60
2022-08-28T23:46:08.802Z,0.60
2022-08-28T23:48:40.071Z,0.50
2022-08-28T23:51:10.266Z,0.50
2022-08-28T23:53:38.823Z,0.57
2022-08-28T23:56:06.310Z,0.60
2022-08-28T23:58:33.300Z,0.57
